sensor_id;sensor_type;location;lat;lon;timestamp;temperature;humidity
75719;DHT22;64340;48.534;-3.036;2023-05-10T00:00:15;17.50;69.90
75719;DHT22;64340;48.534;-3.036;2023-05-10T00:02:42;17.50;70.00
75719;DHT22;64340;48.534;-3.036;2023-05-10T00:05:08;17.50;70.00
75719;DHT22;64340;48.534;-3.036;2023-05-10T00:07:34;17.50;70.00
75719;DHT22;64340;48.534;-3.036;2023-05-10T00:09:59;17.50;70.00
75719;DHT22;64340;48.534;-3.036;2023-05-10T00:12:25;17.50;69.60
75719;DHT22;64340;48.534;-3.036;2023-05-10T00:14:51;17.50;69.80
75719;DHT22;64340;48.534;-3.036;2023-05-10T00:17:17;17.50;69.50
75719;DHT22;64340;48.534;-3.036;2023-05-10T00:19:42;17.50;69.60
75719;DHT22;64340;48.534;-3.036;2023-05-10T00:22:08;17.50;69.60
75719;DHT22;64340;48.534;-3.036;2023-05-10T00:24:34;17.50;69.60
75719;DHT22;64340;48.534;-3.036;2023-05-10T00:26:59;17.50;69.50
75719;DHT22;64340;48.534;-3.036;2023-05-10T00:29:26;17.40;69.70
75719;DHT22;64340;48.534;-3.036;2023-05-10T00:31:53;17.40;69.60
75719;DHT22;64340;48.534;-3.036;2023-05-10T00:34:19;17.40;69.60
75719;DHT22;64340;48.534;-3.036;2023-05-10T00:36:44;17.40;69.60
75719;DHT22;64340;48.534;-3.036;2023-05-10T00:39:10;17.40;69.70
75719;DHT22;64340;48.534;-3.036;2023-05-10T00:41:36;17.40;69.70
75719;DHT22;64340;48.534;-3.036;2023-05-10T00:44:02;17.40;69.60
75719;DHT22;64340;48.534;-3.036;2023-05-10T00:46:28;17.40;69.60
75719;DHT22;64340;48.534;-3.036;2023-05-10T00:48:54;17.40;69.60
75719;DHT22;64340;48.534;-3.036;2023-05-10T00:51:20;17.40;69.80
75719;DHT22;64340;48.534;-3.036;2023-05-10T00:53:46;17.30;69.70
75719;DHT22;64340;48.534;-3.036;2023-05-10T00:56:12;17.40;69.70
75719;DHT22;64340;48.534;-3.036;2023-05-10T00:58:41;17.30;69.80
75719;DHT22;64340;48.534;-3.036;2023-05-10T01:01:08;17.30;69.80
75719;DHT22;64340;48.534;-3.036;2023-05-10T01:03:35;17.40;69.90
75719;DHT22;64340;48.534;-3.036;2023-05-10T01:06:01;17.40;70.00
75719;DHT22;64340;48.534;-3.036;2023-05-10T01:08:27;17.30;70.00
75719;DHT22;64340;48.534;-3.036;2023-05-10T01:10:54;17.40;70.10
75719;DHT22;64340;48.534;-3.036;2023-05-10T01:13:38;17.30;70.20
75719;DHT22;64340;48.534;-3.036;2023-05-10T01:16:05;17.30;70.10
75719;DHT22;64340;48.534;-3.036;2023-05-10T01:18:38;17.30;70.10
75719;DHT22;64340;48.534;-3.036;2023-05-10T01:30:15;17.30;69.40
75719;DHT22;64340;48.534;-3.036;2023-05-10T01:34:54;17.30;69.40
75719;DHT22;64340;48.534;-3.036;2023-05-10T01:37:33;17.30;69.50
75719;DHT22;64340;48.534;-3.036;2023-05-10T01:40:26;17.30;69.60
75719;DHT22;64340;48.534;-3.036;2023-05-10T01:42:55;17.30;69.60
75719;DHT22;64340;48.534;-3.036;2023-05-10T01:45:57;17.20;69.60
75719;DHT22;64340;48.534;-3.036;2023-05-10T01:48:26;17.30;69.60
75719;DHT22;64340;48.534;-3.036;2023-05-10T01:50:53;17.20;69.60
75719;DHT22;64340;48.534;-3.036;2023-05-10T01:53:21;17.20;69.70
75719;DHT22;64340;48.534;-3.036;2023-05-10T01:55:51;17.20;69.70
75719;DHT22;64340;48.534;-3.036;2023-05-10T01:58:29;17.20;69.60
75719;DHT22;64340;48.534;-3.036;2023-05-10T02:00:55;17.20;69.60
75719;DHT22;64340;48.534;-3.036;2023-05-10T02:03:24;17.20;69.60
75719;DHT22;64340;48.534;-3.036;2023-05-10T02:05:53;17.20;69.70
75719;DHT22;64340;48.534;-3.036;2023-05-10T02:08:20;17.20;69.80
75719;DHT22;64340;48.534;-3.036;2023-05-10T02:10:49;17.20;69.80
75719;DHT22;64340;48.534;-3.036;2023-05-10T02:13:16;17.20;69.60
75719;DHT22;64340;48.534;-3.036;2023-05-10T02:15:43;17.20;69.70
75719;DHT22;64340;48.534;-3.036;2023-05-10T02:18:13;17.20;69.70
75719;DHT22;64340;48.534;-3.036;2023-05-10T02:20:43;17.20;69.80
75719;DHT22;64340;48.534;-3.036;2023-05-10T02:23:10;17.20;69.70
75719;DHT22;64340;48.534;-3.036;2023-05-10T02:25:37;17.20;69.80
75719;DHT22;64340;48.534;-3.036;2023-05-10T02:28:05;17.20;69.80
75719;DHT22;64340;48.534;-3.036;2023-05-10T02:30:33;17.20;69.90
75719;DHT22;64340;48.534;-3.036;2023-05-10T02:32:59;17.20;69.70
75719;DHT22;64340;48.534;-3.036;2023-05-10T02:35:26;17.20;69.50
75719;DHT22;64340;48.534;-3.036;2023-05-10T02:37:53;17.20;69.50
75719;DHT22;64340;48.534;-3.036;2023-05-10T02:40:21;17.20;69.60
75719;DHT22;64340;48.534;-3.036;2023-05-10T02:42:50;17.20;69.40
75719;DHT22;64340;48.534;-3.036;2023-05-10T02:45:20;17.20;69.50
75719;DHT22;64340;48.534;-3.036;2023-05-10T02:47:48;17.20;69.60
75719;DHT22;64340;48.534;-3.036;2023-05-10T02:50:14;17.20;69.50
75719;DHT22;64340;48.534;-3.036;2023-05-10T02:52:44;17.20;69.60
75719;DHT22;64340;48.534;-3.036;2023-05-10T02:55:15;17.20;69.60
75719;DHT22;64340;48.534;-3.036;2023-05-10T02:57:48;17.20;69.50
75719;DHT22;64340;48.534;-3.036;2023-05-10T03:00:16;17.20;69.60
75719;DHT22;64340;48.534;-3.036;2023-05-10T03:02:42;17.10;69.60
75719;DHT22;64340;48.534;-3.036;2023-05-10T03:05:08;17.20;69.60
75719;DHT22;64340;48.534;-3.036;2023-05-10T03:07:34;17.10;69.70
75719;DHT22;64340;48.534;-3.036;2023-05-10T03:10:00;17.10;69.80
75719;DHT22;64340;48.534;-3.036;2023-05-10T03:15:38;17.10;69.70
75719;DHT22;64340;48.534;-3.036;2023-05-10T03:18:22;17.10;69.80
75719;DHT22;64340;48.534;-3.036;2023-05-10T03:20:50;17.10;69.80
75719;DHT22;64340;48.534;-3.036;2023-05-10T03:23:35;17.00;69.80
75719;DHT22;64340;48.534;-3.036;2023-05-10T03:26:04;17.10;69.80
75719;DHT22;64340;48.534;-3.036;2023-05-10T03:28:31;17.00;69.80
75719;DHT22;64340;48.534;-3.036;2023-05-10T03:30:59;17.00;69.90
75719;DHT22;64340;48.534;-3.036;2023-05-10T03:33:25;17.00;69.90
75719;DHT22;64340;48.534;-3.036;2023-05-10T03:35:51;17.00;70.00
75719;DHT22;64340;48.534;-3.036;2023-05-10T03:38:17;17.00;70.00
75719;DHT22;64340;48.534;-3.036;2023-05-10T03:40:42;17.00;70.10
75719;DHT22;64340;48.534;-3.036;2023-05-10T03:43:08;17.00;70.10
75719;DHT22;64340;48.534;-3.036;2023-05-10T03:45:34;17.00;70.10
75719;DHT22;64340;48.534;-3.036;2023-05-10T03:48:00;17.00;70.00
75719;DHT22;64340;48.534;-3.036;2023-05-10T03:50:25;17.00;69.90
75719;DHT22;64340;48.534;-3.036;2023-05-10T03:52:51;17.00;69.90
75719;DHT22;64340;48.534;-3.036;2023-05-10T03:55:17;17.00;69.90
75719;DHT22;64340;48.534;-3.036;2023-05-10T03:57:43;17.00;69.70
75719;DHT22;64340;48.534;-3.036;2023-05-10T04:00:09;17.00;69.70
75719;DHT22;64340;48.534;-3.036;2023-05-10T04:02:35;17.00;69.80
75719;DHT22;64340;48.534;-3.036;2023-05-10T04:05:01;17.00;69.80
75719;DHT22;64340;48.534;-3.036;2023-05-10T04:07:28;17.00;69.80
75719;DHT22;64340;48.534;-3.036;2023-05-10T04:09:53;17.00;69.80
75719;DHT22;64340;48.534;-3.036;2023-05-10T04:12:19;17.00;69.90
75719;DHT22;64340;48.534;-3.036;2023-05-10T04:14:45;17.00;69.80
75719;DHT22;64340;48.534;-3.036;2023-05-10T04:17:11;17.00;69.80
75719;DHT22;64340;48.534;-3.036;2023-05-10T04:19:37;17.00;69.80
75719;DHT22;64340;48.534;-3.036;2023-05-10T04:22:03;17.00;69.80
75719;DHT22;64340;48.534;-3.036;2023-05-10T04:24:29;17.00;69.80
75719;DHT22;64340;48.534;-3.036;2023-05-10T04:26:54;17.00;69.80
75719;DHT22;64340;48.534;-3.036;2023-05-10T04:29:20;17.00;69.90
75719;DHT22;64340;48.534;-3.036;2023-05-10T04:31:46;17.00;70.10
75719;DHT22;64340;48.534;-3.036;2023-05-10T04:34:12;17.00;69.90
75719;DHT22;64340;48.534;-3.036;2023-05-10T04:36:38;17.00;69.90
75719;DHT22;64340;48.534;-3.036;2023-05-10T04:39:03;17.00;70.20
75719;DHT22;64340;48.534;-3.036;2023-05-10T04:41:29;17.00;70.30
75719;DHT22;64340;48.534;-3.036;2023-05-10T04:43:55;17.00;70.20
75719;DHT22;64340;48.534;-3.036;2023-05-10T04:46:21;17.00;70.20
75719;DHT22;64340;48.534;-3.036;2023-05-10T04:48:47;17.00;70.40
75719;DHT22;64340;48.534;-3.036;2023-05-10T04:51:13;17.10;70.40
75719;DHT22;64340;48.534;-3.036;2023-05-10T04:53:38;17.10;70.30
75719;DHT22;64340;48.534;-3.036;2023-05-10T04:56:04;17.10;70.40
75719;DHT22;64340;48.534;-3.036;2023-05-10T04:58:30;17.00;70.60
75719;DHT22;64340;48.534;-3.036;2023-05-10T05:00:56;17.00;70.40
75719;DHT22;64340;48.534;-3.036;2023-05-10T05:03:22;17.20;70.70
75719;DHT22;64340;48.534;-3.036;2023-05-10T05:05:48;17.20;70.50
75719;DHT22;64340;48.534;-3.036;2023-05-10T05:08:14;17.20;70.50
75719;DHT22;64340;48.534;-3.036;2023-05-10T05:10:39;17.10;70.40
75719;DHT22;64340;48.534;-3.036;2023-05-10T05:13:05;17.20;70.50
75719;DHT22;64340;48.534;-3.036;2023-05-10T05:15:31;17.10;70.50
75719;DHT22;64340;48.534;-3.036;2023-05-10T05:17:57;17.10;70.70
75719;DHT22;64340;48.534;-3.036;2023-05-10T05:20:24;17.00;70.70
75719;DHT22;64340;48.534;-3.036;2023-05-10T05:22:52;17.20;70.70
75719;DHT22;64340;48.534;-3.036;2023-05-10T05:25:17;17.10;70.80
75719;DHT22;64340;48.534;-3.036;2023-05-10T05:27:43;17.10;71.00
75719;DHT22;64340;48.534;-3.036;2023-05-10T05:30:09;17.10;71.00
75719;DHT22;64340;48.534;-3.036;2023-05-10T05:32:35;17.10;71.20
75719;DHT22;64340;48.534;-3.036;2023-05-10T05:35:01;17.10;71.50
75719;DHT22;64340;48.534;-3.036;2023-05-10T05:37:26;17.10;71.60
75719;DHT22;64340;48.534;-3.036;2023-05-10T05:39:52;17.10;71.50
75719;DHT22;64340;48.534;-3.036;2023-05-10T05:42:19;17.00;71.70
75719;DHT22;64340;48.534;-3.036;2023-05-10T05:44:45;17.00;71.80
75719;DHT22;64340;48.534;-3.036;2023-05-10T05:47:11;17.00;71.70
75719;DHT22;64340;48.534;-3.036;2023-05-10T05:49:37;17.00;71.90
75719;DHT22;64340;48.534;-3.036;2023-05-10T05:52:03;17.00;71.90
75719;DHT22;64340;48.534;-3.036;2023-05-10T05:54:30;17.00;71.90
75719;DHT22;64340;48.534;-3.036;2023-05-10T05:57:00;17.00;71.80
75719;DHT22;64340;48.534;-3.036;2023-05-10T05:59:26;17.00;71.80
75719;DHT22;64340;48.534;-3.036;2023-05-10T06:01:52;17.00;71.90
75719;DHT22;64340;48.534;-3.036;2023-05-10T06:04:18;17.00;71.80
75719;DHT22;64340;48.534;-3.036;2023-05-10T06:06:44;17.00;71.80
75719;DHT22;64340;48.534;-3.036;2023-05-10T06:09:10;17.00;71.70
75719;DHT22;64340;48.534;-3.036;2023-05-10T06:11:37;17.00;71.80
75719;DHT22;64340;48.534;-3.036;2023-05-10T06:14:04;17.00;71.70
75719;DHT22;64340;48.534;-3.036;2023-05-10T06:16:30;17.00;71.60
75719;DHT22;64340;48.534;-3.036;2023-05-10T06:18:56;17.00;71.50
75719;DHT22;64340;48.534;-3.036;2023-05-10T06:21:22;17.00;71.50
75719;DHT22;64340;48.534;-3.036;2023-05-10T06:23:48;17.00;71.50
75719;DHT22;64340;48.534;-3.036;2023-05-10T06:26:14;17.00;71.50
75719;DHT22;64340;48.534;-3.036;2023-05-10T06:28:40;17.00;71.50
75719;DHT22;64340;48.534;-3.036;2023-05-10T06:31:06;17.00;71.50
75719;DHT22;64340;48.534;-3.036;2023-05-10T06:33:32;17.00;71.40
75719;DHT22;64340;48.534;-3.036;2023-05-10T06:35:59;16.90;71.30
75719;DHT22;64340;48.534;-3.036;2023-05-10T06:38:24;16.90;71.30
75719;DHT22;64340;48.534;-3.036;2023-05-10T06:40:51;16.90;71.20
75719;DHT22;64340;48.534;-3.036;2023-05-10T06:43:17;16.90;71.20
75719;DHT22;64340;48.534;-3.036;2023-05-10T06:45:43;16.90;71.20
75719;DHT22;64340;48.534;-3.036;2023-05-10T06:48:08;16.90;71.20
75719;DHT22;64340;48.534;-3.036;2023-05-10T06:50:34;16.90;71.10
75719;DHT22;64340;48.534;-3.036;2023-05-10T06:53:00;16.90;71.00
75719;DHT22;64340;48.534;-3.036;2023-05-10T06:55:27;17.00;71.00
75719;DHT22;64340;48.534;-3.036;2023-05-10T06:57:54;17.00;71.00
75719;DHT22;64340;48.534;-3.036;2023-05-10T07:00:20;17.00;70.90
75719;DHT22;64340;48.534;-3.036;2023-05-10T07:02:46;17.00;70.90
75719;DHT22;64340;48.534;-3.036;2023-05-10T07:05:12;17.00;70.90
75719;DHT22;64340;48.534;-3.036;2023-05-10T07:07:39;16.90;70.90
75719;DHT22;64340;48.534;-3.036;2023-05-10T07:10:05;16.90;70.80
75719;DHT22;64340;48.534;-3.036;2023-05-10T07:12:31;16.90;70.80
75719;DHT22;64340;48.534;-3.036;2023-05-10T07:14:57;16.90;70.80
75719;DHT22;64340;48.534;-3.036;2023-05-10T07:17:23;16.90;70.80
75719;DHT22;64340;48.534;-3.036;2023-05-10T07:19:49;16.90;70.70
75719;DHT22;64340;48.534;-3.036;2023-05-10T07:22:15;16.90;70.80
75719;DHT22;64340;48.534;-3.036;2023-05-10T07:24:42;17.00;70.70
75719;DHT22;64340;48.534;-3.036;2023-05-10T07:27:08;17.00;70.90
75719;DHT22;64340;48.534;-3.036;2023-05-10T07:29:35;17.00;70.80
75719;DHT22;64340;48.534;-3.036;2023-05-10T07:32:01;16.90;70.80
75719;DHT22;64340;48.534;-3.036;2023-05-10T07:34:26;16.90;70.90
75719;DHT22;64340;48.534;-3.036;2023-05-10T07:36:54;16.90;70.90
75719;DHT22;64340;48.534;-3.036;2023-05-10T07:39:20;16.90;70.80
75719;DHT22;64340;48.534;-3.036;2023-05-10T07:41:48;16.90;70.90
75719;DHT22;64340;48.534;-3.036;2023-05-10T07:44:14;16.90;70.70
75719;DHT22;64340;48.534;-3.036;2023-05-10T07:46:40;16.90;70.70
75719;DHT22;64340;48.534;-3.036;2023-05-10T07:49:05;16.90;70.60
75719;DHT22;64340;48.534;-3.036;2023-05-10T07:51:31;16.90;70.70
75719;DHT22;64340;48.534;-3.036;2023-05-10T07:53:57;16.90;70.60
75719;DHT22;64340;48.534;-3.036;2023-05-10T07:56:28;17.00;70.50
75719;DHT22;64340;48.534;-3.036;2023-05-10T07:58:58;17.00;70.40
75719;DHT22;64340;48.534;-3.036;2023-05-10T08:01:25;17.00;70.30
75719;DHT22;64340;48.534;-3.036;2023-05-10T08:03:51;17.10;70.30
75719;DHT22;64340;48.534;-3.036;2023-05-10T08:06:19;17.10;70.20
75719;DHT22;64340;48.534;-3.036;2023-05-10T08:08:48;17.20;70.10
75719;DHT22;64340;48.534;-3.036;2023-05-10T08:11:19;17.20;70.10
75719;DHT22;64340;48.534;-3.036;2023-05-10T08:13:46;17.20;70.20
75719;DHT22;64340;48.534;-3.036;2023-05-10T08:16:12;17.20;70.30
75719;DHT22;64340;48.534;-3.036;2023-05-10T08:18:39;17.20;70.10
75719;DHT22;64340;48.534;-3.036;2023-05-10T08:21:05;17.20;70.30
75719;DHT22;64340;48.534;-3.036;2023-05-10T08:23:32;17.20;70.30
75719;DHT22;64340;48.534;-3.036;2023-05-10T08:25:58;17.20;70.50
75719;DHT22;64340;48.534;-3.036;2023-05-10T08:28:24;17.20;70.50
75719;DHT22;64340;48.534;-3.036;2023-05-10T08:30:50;17.20;70.50
75719;DHT22;64340;48.534;-3.036;2023-05-10T08:33:18;17.20;70.50
75719;DHT22;64340;48.534;-3.036;2023-05-10T08:35:44;17.30;70.50
75719;DHT22;64340;48.534;-3.036;2023-05-10T08:38:10;17.30;70.50
75719;DHT22;64340;48.534;-3.036;2023-05-10T08:40:37;17.30;70.70
75719;DHT22;64340;48.534;-3.036;2023-05-10T08:43:10;17.40;70.50
75719;DHT22;64340;48.534;-3.036;2023-05-10T08:45:39;17.40;70.30
75719;DHT22;64340;48.534;-3.036;2023-05-10T08:48:06;17.40;70.20
75719;DHT22;64340;48.534;-3.036;2023-05-10T08:50:37;17.40;70.00
75719;DHT22;64340;48.534;-3.036;2023-05-10T08:53:11;17.50;69.90
75719;DHT22;64340;48.534;-3.036;2023-05-10T08:55:38;17.50;70.10
75719;DHT22;64340;48.534;-3.036;2023-05-10T08:58:05;17.50;70.20
75719;DHT22;64340;48.534;-3.036;2023-05-10T09:00:32;17.50;70.30
75719;DHT22;64340;48.534;-3.036;2023-05-10T09:02:59;17.50;70.30
75719;DHT22;64340;48.534;-3.036;2023-05-10T09:05:25;17.50;70.20
75719;DHT22;64340;48.534;-3.036;2023-05-10T09:07:51;17.60;70.20
75719;DHT22;64340;48.534;-3.036;2023-05-10T09:10:17;17.50;70.20
75719;DHT22;64340;48.534;-3.036;2023-05-10T09:12:44;17.50;70.10
75719;DHT22;64340;48.534;-3.036;2023-05-10T09:15:11;17.50;70.20
75719;DHT22;64340;48.534;-3.036;2023-05-10T09:17:39;17.60;70.20
75719;DHT22;64340;48.534;-3.036;2023-05-10T09:20:09;17.60;70.10
75719;DHT22;64340;48.534;-3.036;2023-05-10T09:22:35;17.60;70.00
75719;DHT22;64340;48.534;-3.036;2023-05-10T09:25:12;17.60;70.00
75719;DHT22;64340;48.534;-3.036;2023-05-10T09:27:39;17.60;70.00
75719;DHT22;64340;48.534;-3.036;2023-05-10T09:30:07;17.60;69.90
75719;DHT22;64340;48.534;-3.036;2023-05-10T09:32:44;17.60;69.90
75719;DHT22;64340;48.534;-3.036;2023-05-10T09:35:12;17.60;69.90
75719;DHT22;64340;48.534;-3.036;2023-05-10T09:37:44;17.70;69.90
75719;DHT22;64340;48.534;-3.036;2023-05-10T09:43:11;17.70;69.80
75719;DHT22;64340;48.534;-3.036;2023-05-10T09:45:37;17.70;69.70
75719;DHT22;64340;48.534;-3.036;2023-05-10T09:48:03;17.60;69.90
75719;DHT22;64340;48.534;-3.036;2023-05-10T09:50:30;17.80;70.10
75719;DHT22;64340;48.534;-3.036;2023-05-10T09:53:00;17.80;70.10
75719;DHT22;64340;48.534;-3.036;2023-05-10T09:55:39;17.90;70.10
75719;DHT22;64340;48.534;-3.036;2023-05-10T09:58:06;18.00;70.10
75719;DHT22;64340;48.534;-3.036;2023-05-10T10:00:37;18.00;70.40
75719;DHT22;64340;48.534;-3.036;2023-05-10T10:03:03;18.00;70.40
75719;DHT22;64340;48.534;-3.036;2023-05-10T10:05:34;18.00;70.80
75719;DHT22;64340;48.534;-3.036;2023-05-10T10:08:02;18.00;70.70
75719;DHT22;64340;48.534;-3.036;2023-05-10T10:10:28;18.00;70.90
75719;DHT22;64340;48.534;-3.036;2023-05-10T10:12:54;18.00;70.60
75719;DHT22;64340;48.534;-3.036;2023-05-10T10:15:21;18.00;70.60
75719;DHT22;64340;48.534;-3.036;2023-05-10T10:17:49;18.00;70.80
75719;DHT22;64340;48.534;-3.036;2023-05-10T10:20:15;18.00;70.70
75719;DHT22;64340;48.534;-3.036;2023-05-10T10:22:42;18.00;70.40
75719;DHT22;64340;48.534;-3.036;2023-05-10T10:25:13;18.10;70.30
75719;DHT22;64340;48.534;-3.036;2023-05-10T10:30:37;18.10;70.00
75719;DHT22;64340;48.534;-3.036;2023-05-10T10:36:08;18.10;70.10
75719;DHT22;64340;48.534;-3.036;2023-05-10T10:52:27;18.00;69.70
75719;DHT22;64340;48.534;-3.036;2023-05-10T10:57:54;17.90;69.60
75719;DHT22;64340;48.534;-3.036;2023-05-10T11:00:27;17.90;69.50
75719;DHT22;64340;48.534;-3.036;2023-05-10T11:03:10;17.90;69.40
75719;DHT22;64340;48.534;-3.036;2023-05-10T11:05:46;17.90;69.30
75719;DHT22;64340;48.534;-3.036;2023-05-10T11:08:28;18.00;69.30
75719;DHT22;64340;48.534;-3.036;2023-05-10T11:15:58;18.00;69.30
75719;DHT22;64340;48.534;-3.036;2023-05-10T11:18:29;18.00;69.20
75719;DHT22;64340;48.534;-3.036;2023-05-10T11:20:57;18.00;69.30
75719;DHT22;64340;48.534;-3.036;2023-05-10T11:23:30;18.00;69.10
75719;DHT22;64340;48.534;-3.036;2023-05-10T11:25:56;18.00;69.10
75719;DHT22;64340;48.534;-3.036;2023-05-10T11:28:23;18.00;68.80
75719;DHT22;64340;48.534;-3.036;2023-05-10T11:30:48;18.00;68.70
75719;DHT22;64340;48.534;-3.036;2023-05-10T11:33:16;18.10;68.60
75719;DHT22;64340;48.534;-3.036;2023-05-10T11:35:42;18.10;68.90
75719;DHT22;64340;48.534;-3.036;2023-05-10T11:38:11;18.10;68.90
75719;DHT22;64340;48.534;-3.036;2023-05-10T11:40:37;18.00;69.00
75719;DHT22;64340;48.534;-3.036;2023-05-10T11:43:04;18.00;69.00
75719;DHT22;64340;48.534;-3.036;2023-05-10T11:45:34;18.00;69.10
75719;DHT22;64340;48.534;-3.036;2023-05-10T11:48:01;18.00;69.20
75719;DHT22;64340;48.534;-3.036;2023-05-10T11:50:27;18.00;69.30
75719;DHT22;64340;48.534;-3.036;2023-05-10T11:52:56;18.00;69.30
75719;DHT22;64340;48.534;-3.036;2023-05-10T11:55:26;18.00;69.40
75719;DHT22;64340;48.534;-3.036;2023-05-10T11:58:00;18.00;69.40
75719;DHT22;64340;48.534;-3.036;2023-05-10T12:00:27;18.00;69.40
75719;DHT22;64340;48.534;-3.036;2023-05-10T12:02:53;18.00;69.30
75719;DHT22;64340;48.534;-3.036;2023-05-10T12:05:19;18.00;69.30
75719;DHT22;64340;48.534;-3.036;2023-05-10T12:07:45;18.00;69.10
75719;DHT22;64340;48.534;-3.036;2023-05-10T12:10:12;18.00;69.30
75719;DHT22;64340;48.534;-3.036;2023-05-10T12:12:46;18.00;69.30
75719;DHT22;64340;48.534;-3.036;2023-05-10T12:15:23;18.00;69.10
75719;DHT22;64340;48.534;-3.036;2023-05-10T12:17:50;18.00;69.10
75719;DHT22;64340;48.534;-3.036;2023-05-10T12:20:20;18.00;69.00
75719;DHT22;64340;48.534;-3.036;2023-05-10T12:22:51;18.00;69.20
75719;DHT22;64340;48.534;-3.036;2023-05-10T12:25:23;18.00;69.30
75719;DHT22;64340;48.534;-3.036;2023-05-10T12:27:56;18.00;69.30
75719;DHT22;64340;48.534;-3.036;2023-05-10T12:30:27;18.00;69.00
75719;DHT22;64340;48.534;-3.036;2023-05-10T12:33:00;18.00;69.10
75719;DHT22;64340;48.534;-3.036;2023-05-10T12:35:27;17.90;68.80
75719;DHT22;64340;48.534;-3.036;2023-05-10T12:37:55;17.90;68.70
75719;DHT22;64340;48.534;-3.036;2023-05-10T12:40:21;17.90;68.60
75719;DHT22;64340;48.534;-3.036;2023-05-10T12:42:46;17.90;68.40
75719;DHT22;64340;48.534;-3.036;2023-05-10T12:45:12;17.90;68.50
75719;DHT22;64340;48.534;-3.036;2023-05-10T12:47:38;17.90;68.50
75719;DHT22;64340;48.534;-3.036;2023-05-10T12:50:04;18.00;68.70
75719;DHT22;64340;48.534;-3.036;2023-05-10T12:52:31;18.00;68.70
75719;DHT22;64340;48.534;-3.036;2023-05-10T12:54:58;18.00;68.40
75719;DHT22;64340;48.534;-3.036;2023-05-10T12:57:24;18.00;68.40
75719;DHT22;64340;48.534;-3.036;2023-05-10T12:59:50;18.00;68.60
75719;DHT22;64340;48.534;-3.036;2023-05-10T13:02:16;18.00;68.30
75719;DHT22;64340;48.534;-3.036;2023-05-10T13:04:44;18.00;68.50
75719;DHT22;64340;48.534;-3.036;2023-05-10T13:07:10;18.00;68.60
75719;DHT22;64340;48.534;-3.036;2023-05-10T13:09:36;17.90;68.70
75719;DHT22;64340;48.534;-3.036;2023-05-10T13:12:11;17.90;68.60
75719;DHT22;64340;48.534;-3.036;2023-05-10T13:14:39;17.90;68.40
75719;DHT22;64340;48.534;-3.036;2023-05-10T13:17:09;17.80;68.50
75719;DHT22;64340;48.534;-3.036;2023-05-10T13:19:34;17.80;68.30
75719;DHT22;64340;48.534;-3.036;2023-05-10T13:22:00;17.80;68.40
75719;DHT22;64340;48.534;-3.036;2023-05-10T13:24:26;17.80;68.40
75719;DHT22;64340;48.534;-3.036;2023-05-10T13:26:52;17.80;68.60
75719;DHT22;64340;48.534;-3.036;2023-05-10T13:29:17;17.80;68.40
75719;DHT22;64340;48.534;-3.036;2023-05-10T13:31:44;17.80;67.60
75719;DHT22;64340;48.534;-3.036;2023-05-10T13:34:10;17.80;67.60
75719;DHT22;64340;48.534;-3.036;2023-05-10T13:36:36;17.90;67.60
75719;DHT22;64340;48.534;-3.036;2023-05-10T13:39:02;17.90;67.70
75719;DHT22;64340;48.534;-3.036;2023-05-10T13:41:28;17.90;67.40
75719;DHT22;64340;48.534;-3.036;2023-05-10T13:43:54;17.80;67.50
75719;DHT22;64340;48.534;-3.036;2023-05-10T13:46:20;17.80;67.70
75719;DHT22;64340;48.534;-3.036;2023-05-10T13:48:46;17.80;67.60
75719;DHT22;64340;48.534;-3.036;2023-05-10T13:51:11;17.80;67.50
75719;DHT22;64340;48.534;-3.036;2023-05-10T13:53:38;17.80;67.20
75719;DHT22;64340;48.534;-3.036;2023-05-10T13:56:03;17.80;67.30
75719;DHT22;64340;48.534;-3.036;2023-05-10T13:58:29;17.80;67.50
75719;DHT22;64340;48.534;-3.036;2023-05-10T14:00:56;17.80;67.60
75719;DHT22;64340;48.534;-3.036;2023-05-10T14:03:21;17.80;67.90
75719;DHT22;64340;48.534;-3.036;2023-05-10T14:05:47;18.00;67.30
75719;DHT22;64340;48.534;-3.036;2023-05-10T14:08:13;18.00;67.10
75719;DHT22;64340;48.534;-3.036;2023-05-10T14:10:39;18.00;67.50
75719;DHT22;64340;48.534;-3.036;2023-05-10T14:13:05;18.00;66.90
75719;DHT22;64340;48.534;-3.036;2023-05-10T14:15:31;18.00;66.90
75719;DHT22;64340;48.534;-3.036;2023-05-10T14:17:57;18.00;67.20
75719;DHT22;64340;48.534;-3.036;2023-05-10T14:20:23;18.00;67.20
75719;DHT22;64340;48.534;-3.036;2023-05-10T14:22:48;18.00;67.30
75719;DHT22;64340;48.534;-3.036;2023-05-10T14:25:14;18.00;67.30
75719;DHT22;64340;48.534;-3.036;2023-05-10T14:27:40;17.90;67.20
75719;DHT22;64340;48.534;-3.036;2023-05-10T14:30:06;17.90;67.30
75719;DHT22;64340;48.534;-3.036;2023-05-10T14:32:32;17.90;67.30
75719;DHT22;64340;48.534;-3.036;2023-05-10T14:34:59;17.90;67.20
75719;DHT22;64340;48.534;-3.036;2023-05-10T14:37:25;17.90;67.10
75719;DHT22;64340;48.534;-3.036;2023-05-10T14:39:51;17.80;67.10
75719;DHT22;64340;48.534;-3.036;2023-05-10T14:42:17;17.90;67.40
75719;DHT22;64340;48.534;-3.036;2023-05-10T14:44:44;17.80;67.40
75719;DHT22;64340;48.534;-3.036;2023-05-10T14:47:10;17.80;67.60
75719;DHT22;64340;48.534;-3.036;2023-05-10T14:49:37;17.80;67.60
75719;DHT22;64340;48.534;-3.036;2023-05-10T14:52:02;17.80;67.40
75719;DHT22;64340;48.534;-3.036;2023-05-10T14:54:28;17.80;67.60
75719;DHT22;64340;48.534;-3.036;2023-05-10T14:56:54;17.80;67.50
75719;DHT22;64340;48.534;-3.036;2023-05-10T14:59:20;17.80;67.30
75719;DHT22;64340;48.534;-3.036;2023-05-10T15:01:46;17.80;67.50
75719;DHT22;64340;48.534;-3.036;2023-05-10T15:04:12;17.90;67.50
75719;DHT22;64340;48.534;-3.036;2023-05-10T15:06:38;17.90;67.60
75719;DHT22;64340;48.534;-3.036;2023-05-10T15:09:04;17.90;67.60
75719;DHT22;64340;48.534;-3.036;2023-05-10T15:11:30;17.90;67.60
75719;DHT22;64340;48.534;-3.036;2023-05-10T15:13:56;17.80;67.70
75719;DHT22;64340;48.534;-3.036;2023-05-10T15:16:21;17.90;67.60
75719;DHT22;64340;48.534;-3.036;2023-05-10T15:18:48;17.90;67.50
75719;DHT22;64340;48.534;-3.036;2023-05-10T15:21:14;17.90;67.20
75719;DHT22;64340;48.534;-3.036;2023-05-10T15:23:40;18.00;67.00
75719;DHT22;64340;48.534;-3.036;2023-05-10T15:26:06;17.90;67.30
75719;DHT22;64340;48.534;-3.036;2023-05-10T15:28:31;18.00;67.20
75719;DHT22;64340;48.534;-3.036;2023-05-10T15:30:57;18.00;67.10
75719;DHT22;64340;48.534;-3.036;2023-05-10T15:33:23;18.00;67.00
75719;DHT22;64340;48.534;-3.036;2023-05-10T15:35:49;18.10;67.10
75719;DHT22;64340;48.534;-3.036;2023-05-10T15:38:15;18.10;67.30
75719;DHT22;64340;48.534;-3.036;2023-05-10T15:40:41;18.20;67.50
75719;DHT22;64340;48.534;-3.036;2023-05-10T15:43:07;18.20;67.50
75719;DHT22;64340;48.534;-3.036;2023-05-10T15:45:32;18.20;67.40
75719;DHT22;64340;48.534;-3.036;2023-05-10T15:47:58;18.40;67.60
75719;DHT22;64340;48.534;-3.036;2023-05-10T15:50:24;18.30;66.50
75719;DHT22;64340;48.534;-3.036;2023-05-10T15:52:50;18.10;66.20
75719;DHT22;64340;48.534;-3.036;2023-05-10T15:55:16;18.10;66.90
75719;DHT22;64340;48.534;-3.036;2023-05-10T15:57:43;18.10;67.50
75719;DHT22;64340;48.534;-3.036;2023-05-10T16:00:09;18.10;67.30